sensor_id;sensor_type;location;lat;lon;timestamp;P1;durP1;ratioP1;P2;durP2;ratioP2
18931;SDS011;9598;50.954;3.112;2022-11-15T00:00:36;25.38;;;21.45;;
18931;SDS011;9598;50.954;3.112;2022-11-15T00:06:02;27.90;;;22.48;;
18931;SDS011;9598;50.954;3.112;2022-11-15T00:11:23;25.17;;;20.23;;
18931;SDS011;9598;50.954;3.112;2022-11-15T00:16:45;26.80;;;21.48;;
18931;SDS011;9598;50.954;3.112;2022-11-15T00:22:07;24.92;;;20.83;;
18931;SDS011;9598;50.954;3.112;2022-11-15T00:27:28;26.48;;;20.25;;
18931;SDS011;9598;50.954;3.112;2022-11-15T00:32:49;21.50;;;18.30;;
18931;SDS011;9598;50.954;3.112;2022-11-15T00:38:11;22.92;;;18.48;;
18931;SDS011;9598;50.954;3.112;2022-11-15T00:43:31;21.55;;;17.48;;
18931;SDS011;9598;50.954;3.112;2022-11-15T00:48:52;22.70;;;16.67;;
18931;SDS011;9598;50.954;3.112;2022-11-15T00:54:14;19.90;;;16.40;;
18931;SDS011;9598;50.954;3.112;2022-11-15T00:59:35;20.08;;;15.68;;
18931;SDS011;9598;50.954;3.112;2022-11-15T01:04:55;20.20;;;16.27;;
18931;SDS011;9598;50.954;3.112;2022-11-15T01:10:17;20.02;;;14.88;;
18931;SDS011;9598;50.954;3.112;2022-11-15T01:15:39;19.90;;;14.93;;
18931;SDS011;9598;50.954;3.112;2022-11-15T01:21:00;19.33;;;14.23;;
18931;SDS011;9598;50.954;3.112;2022-11-15T01:26:26;21.27;;;13.40;;
18931;SDS011;9598;50.954;3.112;2022-11-15T01:31:47;18.75;;;13.13;;
18931;SDS011;9598;50.954;3.112;2022-11-15T01:37:07;20.45;;;13.82;;
18931;SDS011;9598;50.954;3.112;2022-11-15T01:42:29;17.55;;;12.52;;
18931;SDS011;9598;50.954;3.112;2022-11-15T01:47:50;17.13;;;11.20;;
18931;SDS011;9598;50.954;3.112;2022-11-15T01:53:13;17.23;;;11.40;;
18931;SDS011;9598;50.954;3.112;2022-11-15T01:58:36;15.25;;;10.18;;
18931;SDS011;9598;50.954;3.112;2022-11-15T02:03:58;12.32;;;9.15;;
18931;SDS011;9598;50.954;3.112;2022-11-15T02:09:21;11.52;;;8.15;;
18931;SDS011;9598;50.954;3.112;2022-11-15T02:14:45;12.43;;;7.28;;
18931;SDS011;9598;50.954;3.112;2022-11-15T02:20:24;9.40;;;5.70;;
18931;SDS011;9598;50.954;3.112;2022-11-15T02:26:13;8.00;;;5.30;;
18931;SDS011;9598;50.954;3.112;2022-11-15T02:31:51;9.15;;;4.90;;
18931;SDS011;9598;50.954;3.112;2022-11-15T02:37:19;9.15;;;4.63;;
18931;SDS011;9598;50.954;3.112;2022-11-15T02:42:48;10.23;;;4.70;;
18931;SDS011;9598;50.954;3.112;2022-11-15T02:48:32;10.18;;;4.32;;
18931;SDS011;9598;50.954;3.112;2022-11-15T02:53:53;7.13;;;3.20;;
18931;SDS011;9598;50.954;3.112;2022-11-15T02:59:18;7.60;;;3.45;;
18931;SDS011;9598;50.954;3.112;2022-11-15T03:05:03;9.10;;;3.85;;
18931;SDS011;9598;50.954;3.112;2022-11-15T03:10:32;7.75;;;3.60;;
18931;SDS011;9598;50.954;3.112;2022-11-15T03:16:02;6.18;;;3.30;;
18931;SDS011;9598;50.954;3.112;2022-11-15T03:21:26;4.43;;;3.60;;
18931;SDS011;9598;50.954;3.112;2022-11-15T03:26:49;5.90;;;4.60;;
18931;SDS011;9598;50.954;3.112;2022-11-15T03:32:12;6.32;;;4.43;;
18931;SDS011;9598;50.954;3.112;2022-11-15T03:37:40;7.75;;;4.95;;
18931;SDS011;9598;50.954;3.112;2022-11-15T03:43:06;8.75;;;5.22;;
18931;SDS011;9598;50.954;3.112;2022-11-15T03:48:30;8.55;;;6.07;;
18931;SDS011;9598;50.954;3.112;2022-11-15T03:53:56;9.63;;;5.95;;
18931;SDS011;9598;50.954;3.112;2022-11-15T03:59:17;7.97;;;5.97;;
18931;SDS011;9598;50.954;3.112;2022-11-15T04:04:38;8.23;;;6.00;;
18931;SDS011;9598;50.954;3.112;2022-11-15T04:10:00;9.18;;;6.15;;
18931;SDS011;9598;50.954;3.112;2022-11-15T04:15:24;9.27;;;5.53;;
18931;SDS011;9598;50.954;3.112;2022-11-15T04:20:44;9.55;;;5.97;;
18931;SDS011;9598;50.954;3.112;2022-11-15T04:26:24;10.07;;;5.57;;
18931;SDS011;9598;50.954;3.112;2022-11-15T04:31:44;9.35;;;5.53;;
18931;SDS011;9598;50.954;3.112;2022-11-15T04:37:05;8.50;;;5.85;;
18931;SDS011;9598;50.954;3.112;2022-11-15T04:42:33;7.50;;;5.35;;
18931;SDS011;9598;50.954;3.112;2022-11-15T04:47:54;10.30;;;5.90;;
18931;SDS011;9598;50.954;3.112;2022-11-15T04:53:14;8.63;;;5.47;;
18931;SDS011;9598;50.954;3.112;2022-11-15T04:58:36;8.70;;;5.53;;
18931;SDS011;9598;50.954;3.112;2022-11-15T05:03:57;10.13;;;5.47;;
18931;SDS011;9598;50.954;3.112;2022-11-15T05:09:35;7.15;;;5.35;;
18931;SDS011;9598;50.954;3.112;2022-11-15T05:14:57;7.82;;;5.20;;
18931;SDS011;9598;50.954;3.112;2022-11-15T05:20:18;9.02;;;5.78;;
18931;SDS011;9598;50.954;3.112;2022-11-15T05:25:38;6.65;;;5.00;;
18931;SDS011;9598;50.954;3.112;2022-11-15T05:31:01;5.68;;;4.50;;
18931;SDS011;9598;50.954;3.112;2022-11-15T05:36:25;6.40;;;4.32;;
18931;SDS011;9598;50.954;3.112;2022-11-15T05:41:52;7.75;;;4.93;;
18931;SDS011;9598;50.954;3.112;2022-11-15T05:47:16;5.65;;;4.53;;
18931;SDS011;9598;50.954;3.112;2022-11-15T05:52:40;5.10;;;4.35;;
18931;SDS011;9598;50.954;3.112;2022-11-15T05:58:01;6.53;;;5.13;;
18931;SDS011;9598;50.954;3.112;2022-11-15T06:03:23;5.57;;;4.05;;
18931;SDS011;9598;50.954;3.112;2022-11-15T06:08:44;8.80;;;4.80;;
18931;SDS011;9598;50.954;3.112;2022-11-15T06:14:04;5.75;;;4.15;;
18931;SDS011;9598;50.954;3.112;2022-11-15T06:19:27;6.63;;;5.35;;
18931;SDS011;9598;50.954;3.112;2022-11-15T06:24:51;7.63;;;5.93;;
18931;SDS011;9598;50.954;3.112;2022-11-15T06:30:12;9.73;;;5.80;;
18931;SDS011;9598;50.954;3.112;2022-11-15T06:35:34;6.70;;;6.03;;
18931;SDS011;9598;50.954;3.112;2022-11-15T06:41:00;7.28;;;6.25;;
18931;SDS011;9598;50.954;3.112;2022-11-15T06:46:21;8.57;;;6.45;;
18931;SDS011;9598;50.954;3.112;2022-11-15T06:51:43;10.38;;;8.20;;
18931;SDS011;9598;50.954;3.112;2022-11-15T06:57:04;10.73;;;8.10;;
18931;SDS011;9598;50.954;3.112;2022-11-15T07:02:24;10.82;;;8.18;;
18931;SDS011;9598;50.954;3.112;2022-11-15T07:07:52;12.15;;;9.20;;
18931;SDS011;9598;50.954;3.112;2022-11-15T07:13:12;21.00;;;13.80;;
18931;SDS011;9598;50.954;3.112;2022-11-15T07:18:33;13.43;;;12.02;;
18931;SDS011;9598;50.954;3.112;2022-11-15T07:23:56;11.63;;;10.43;;
18931;SDS011;9598;50.954;3.112;2022-11-15T07:29:16;13.07;;;10.18;;
18931;SDS011;9598;50.954;3.112;2022-11-15T07:34:37;13.48;;;10.30;;
18931;SDS011;9598;50.954;3.112;2022-11-15T07:39:58;14.30;;;11.48;;
18931;SDS011;9598;50.954;3.112;2022-11-15T07:45:19;12.48;;;11.13;;
18931;SDS011;9598;50.954;3.112;2022-11-15T07:50:40;13.88;;;10.90;;
18931;SDS011;9598;50.954;3.112;2022-11-15T07:56:05;11.68;;;10.48;;
18931;SDS011;9598;50.954;3.112;2022-11-15T08:01:26;10.63;;;9.55;;
18931;SDS011;9598;50.954;3.112;2022-11-15T08:06:46;9.45;;;8.45;;
18931;SDS011;9598;50.954;3.112;2022-11-15T08:12:08;11.73;;;8.73;;
18931;SDS011;9598;50.954;3.112;2022-11-15T08:17:29;8.52;;;6.70;;
18931;SDS011;9598;50.954;3.112;2022-11-15T08:22:51;9.50;;;6.40;;
18931;SDS011;9598;50.954;3.112;2022-11-15T08:28:13;10.38;;;6.00;;
18931;SDS011;9598;50.954;3.112;2022-11-15T08:33:36;12.57;;;6.45;;
18931;SDS011;9598;50.954;3.112;2022-11-15T08:38:57;7.22;;;4.47;;
18931;SDS011;9598;50.954;3.112;2022-11-15T08:44:19;8.63;;;4.30;;
18931;SDS011;9598;50.954;3.112;2022-11-15T08:49:39;7.68;;;4.85;;
18931;SDS011;9598;50.954;3.112;2022-11-15T08:55:00;5.25;;;4.55;;
18931;SDS011;9598;50.954;3.112;2022-11-15T09:00:22;3.90;;;3.50;;
18931;SDS011;9598;50.954;3.112;2022-11-15T09:05:43;7.38;;;4.82;;
18931;SDS011;9598;50.954;3.112;2022-11-15T09:11:04;7.75;;;4.18;;
18931;SDS011;9598;50.954;3.112;2022-11-15T09:16:29;7.07;;;4.18;;
18931;SDS011;9598;50.954;3.112;2022-11-15T09:21:50;8.00;;;3.67;;
18931;SDS011;9598;50.954;3.112;2022-11-15T09:27:11;5.80;;;3.20;;
18931;SDS011;9598;50.954;3.112;2022-11-15T09:32:33;6.38;;;2.70;;
18931;SDS011;9598;50.954;3.112;2022-11-15T09:37:54;4.50;;;2.85;;
18931;SDS011;9598;50.954;3.112;2022-11-15T09:43:23;6.95;;;2.80;;
18931;SDS011;9598;50.954;3.112;2022-11-15T09:48:51;5.95;;;3.50;;
18931;SDS011;9598;50.954;3.112;2022-11-15T09:54:13;11.05;;;3.83;;
18931;SDS011;9598;50.954;3.112;2022-11-15T09:59:27;6.55;;;3.05;;
18931;SDS011;9598;50.954;3.112;2022-11-15T10:04:42;8.07;;;3.40;;
18931;SDS011;9598;50.954;3.112;2022-11-15T10:09:45;7.50;;;2.22;;
18931;SDS011;9598;50.954;3.112;2022-11-15T10:14:55;6.20;;;2.92;;
18931;SDS011;9598;50.954;3.112;2022-11-15T10:20:05;7.07;;;2.55;;
18931;SDS011;9598;50.954;3.112;2022-11-15T10:25:16;6.18;;;3.47;;
18931;SDS011;9598;50.954;3.112;2022-11-15T10:30:23;7.88;;;2.38;;
18931;SDS011;9598;50.954;3.112;2022-11-15T10:35:34;5.97;;;2.40;;
18931;SDS011;9598;50.954;3.112;2022-11-15T10:40:37;5.72;;;2.88;;
18931;SDS011;9598;50.954;3.112;2022-11-15T10:45:40;7.72;;;3.30;;
18931;SDS011;9598;50.954;3.112;2022-11-15T10:50:44;6.72;;;3.00;;
18931;SDS011;9598;50.954;3.112;2022-11-15T10:55:48;3.65;;;2.75;;
18931;SDS011;9598;50.954;3.112;2022-11-15T11:00:52;6.75;;;3.08;;
18931;SDS011;9598;50.954;3.112;2022-11-15T11:11:18;5.70;;;2.40;;
18931;SDS011;9598;50.954;3.112;2022-11-15T11:16:23;5.95;;;2.30;;
18931;SDS011;9598;50.954;3.112;2022-11-15T11:21:46;3.78;;;2.08;;
18931;SDS011;9598;50.954;3.112;2022-11-15T11:26:59;3.65;;;1.92;;
18931;SDS011;9598;50.954;3.112;2022-11-15T11:32:21;5.30;;;2.38;;
18931;SDS011;9598;50.954;3.112;2022-11-15T11:37:34;4.63;;;2.60;;
18931;SDS011;9598;50.954;3.112;2022-11-15T11:42:44;6.55;;;2.90;;
18931;SDS011;9598;50.954;3.112;2022-11-15T11:47:59;7.55;;;2.58;;
18931;SDS011;9598;50.954;3.112;2022-11-15T11:53:11;5.15;;;2.53;;
18931;SDS011;9598;50.954;3.112;2022-11-15T11:58:17;3.88;;;2.55;;
18931;SDS011;9598;50.954;3.112;2022-11-15T12:03:24;5.13;;;2.80;;
18931;SDS011;9598;50.954;3.112;2022-11-15T12:08:35;6.10;;;3.50;;
18931;SDS011;9598;50.954;3.112;2022-11-15T12:13:47;11.32;;;3.55;;
18931;SDS011;9598;50.954;3.112;2022-11-15T12:18:53;11.70;;;3.63;;
18931;SDS011;9598;50.954;3.112;2022-11-15T12:24:00;6.25;;;3.10;;
18931;SDS011;9598;50.954;3.112;2022-11-15T12:29:09;5.78;;;3.00;;
18931;SDS011;9598;50.954;3.112;2022-11-15T12:34:29;8.93;;;3.30;;
18931;SDS011;9598;50.954;3.112;2022-11-15T12:45:26;5.32;;;3.30;;
18931;SDS011;9598;50.954;3.112;2022-11-15T12:56:18;12.13;;;4.57;;
18931;SDS011;9598;50.954;3.112;2022-11-15T13:07:07;7.15;;;3.78;;
18931;SDS011;9598;50.954;3.112;2022-11-15T13:12:55;4.75;;;3.58;;
18931;SDS011;9598;50.954;3.112;2022-11-15T13:17:58;5.93;;;3.85;;
18931;SDS011;9598;50.954;3.112;2022-11-15T13:23:30;3.75;;;3.45;;
18931;SDS011;9598;50.954;3.112;2022-11-15T13:28:33;5.03;;;3.92;;
18931;SDS011;9598;50.954;3.112;2022-11-15T13:33:38;4.43;;;3.97;;
18931;SDS011;9598;50.954;3.112;2022-11-15T13:38:42;5.07;;;3.05;;
18931;SDS011;9598;50.954;3.112;2022-11-15T13:43:44;5.75;;;3.85;;
18931;SDS011;9598;50.954;3.112;2022-11-15T13:48:50;4.50;;;3.67;;
18931;SDS011;9598;50.954;3.112;2022-11-15T13:53:57;5.18;;;3.95;;
18931;SDS011;9598;50.954;3.112;2022-11-15T13:59:08;5.40;;;4.20;;
18931;SDS011;9598;50.954;3.112;2022-11-15T14:04:11;5.45;;;3.30;;
18931;SDS011;9598;50.954;3.112;2022-11-15T14:09:24;5.90;;;3.53;;
18931;SDS011;9598;50.954;3.112;2022-11-15T14:14:32;6.38;;;3.33;;
18931;SDS011;9598;50.954;3.112;2022-11-15T14:19:45;4.35;;;2.88;;
18931;SDS011;9598;50.954;3.112;2022-11-15T14:25:04;4.35;;;2.83;;
18931;SDS011;9598;50.954;3.112;2022-11-15T14:30:17;3.13;;;2.63;;
18931;SDS011;9598;50.954;3.112;2022-11-15T14:35:20;3.65;;;2.42;;
18931;SDS011;9598;50.954;3.112;2022-11-15T14:40:25;5.38;;;3.45;;
18931;SDS011;9598;50.954;3.112;2022-11-15T14:45:27;3.53;;;3.13;;
18931;SDS011;9598;50.954;3.112;2022-11-15T14:50:29;4.15;;;3.10;;
18931;SDS011;9598;50.954;3.112;2022-11-15T14:55:35;20.77;;;5.53;;
18931;SDS011;9598;50.954;3.112;2022-11-15T15:00:38;4.85;;;3.30;;
18931;SDS011;9598;50.954;3.112;2022-11-15T15:05:41;5.20;;;4.38;;
18931;SDS011;9598;50.954;3.112;2022-11-15T15:10:46;4.95;;;4.07;;
18931;SDS011;9598;50.954;3.112;2022-11-15T15:15:48;4.30;;;3.88;;
18931;SDS011;9598;50.954;3.112;2022-11-15T15:20:54;5.72;;;4.00;;
18931;SDS011;9598;50.954;3.112;2022-11-15T15:26:01;4.47;;;4.03;;
18931;SDS011;9598;50.954;3.112;2022-11-15T15:31:03;7.22;;;4.75;;
18931;SDS011;9598;50.954;3.112;2022-11-15T15:36:07;4.63;;;4.07;;
18931;SDS011;9598;50.954;3.112;2022-11-15T15:41:13;3.78;;;3.47;;
18931;SDS011;9598;50.954;3.112;2022-11-15T15:46:18;3.85;;;3.55;;
18931;SDS011;9598;50.954;3.112;2022-11-15T15:51:21;4.35;;;4.00;;
18931;SDS011;9598;50.954;3.112;2022-11-15T15:56:24;4.85;;;4.40;;
18931;SDS011;9598;50.954;3.112;2022-11-15T16:01:28;4.03;;;3.72;;
18931;SDS011;9598;50.954;3.112;2022-11-15T16:06:34;5.63;;;5.13;;
18931;SDS011;9598;50.954;3.112;2022-11-15T16:11:39;4.78;;;3.97;;
18931;SDS011;9598;50.954;3.112;2022-11-15T16:16:41;5.63;;;4.35;;
18931;SDS011;9598;50.954;3.112;2022-11-15T16:21:43;4.80;;;4.43;;
18931;SDS011;9598;50.954;3.112;2022-11-15T16:26:47;4.55;;;4.15;;
18931;SDS011;9598;50.954;3.112;2022-11-15T16:31:50;6.95;;;5.28;;
18931;SDS011;9598;50.954;3.112;2022-11-15T16:36:52;4.90;;;4.50;;
18931;SDS011;9598;50.954;3.112;2022-11-15T16:41:56;5.53;;;4.75;;
18931;SDS011;9598;50.954;3.112;2022-11-15T16:46:58;4.40;;;4.07;;
18931;SDS011;9598;50.954;3.112;2022-11-15T16:52:02;10.90;;;9.90;;
18931;SDS011;9598;50.954;3.112;2022-11-15T16:57:06;5.57;;;5.05;;
18931;SDS011;9598;50.954;3.112;2022-11-15T17:02:10;4.68;;;4.28;;
18931;SDS011;9598;50.954;3.112;2022-11-15T17:07:13;4.80;;;4.40;;
18931;SDS011;9598;50.954;3.112;2022-11-15T17:12:16;4.90;;;4.50;;
18931;SDS011;9598;50.954;3.112;2022-11-15T17:17:18;5.68;;;5.18;;
18931;SDS011;9598;50.954;3.112;2022-11-15T17:22:20;5.30;;;4.80;;
18931;SDS011;9598;50.954;3.112;2022-11-15T17:27:24;5.75;;;5.22;;
18931;SDS011;9598;50.954;3.112;2022-11-15T17:32:26;5.72;;;5.22;;
18931;SDS011;9598;50.954;3.112;2022-11-15T17:37:28;6.93;;;6.32;;
18931;SDS011;9598;50.954;3.112;2022-11-15T17:42:31;10.77;;;9.13;;
18931;SDS011;9598;50.954;3.112;2022-11-15T17:47:33;11.65;;;10.52;;
18931;SDS011;9598;50.954;3.112;2022-11-15T17:52:35;7.82;;;7.13;;
18931;SDS011;9598;50.954;3.112;2022-11-15T17:57:38;7.88;;;7.10;;
18931;SDS011;9598;50.954;3.112;2022-11-15T18:02:40;7.95;;;7.15;;
18931;SDS011;9598;50.954;3.112;2022-11-15T18:07:45;11.82;;;10.73;;
18931;SDS011;9598;50.954;3.112;2022-11-15T18:12:48;7.20;;;6.60;;
18931;SDS011;9598;50.954;3.112;2022-11-15T18:17:50;7.22;;;6.55;;
18931;SDS011;9598;50.954;3.112;2022-11-15T18:22:52;9.95;;;8.02;;
18931;SDS011;9598;50.954;3.112;2022-11-15T18:27:56;9.13;;;8.32;;
18931;SDS011;9598;50.954;3.112;2022-11-15T18:32:58;9.88;;;9.07;;
18931;SDS011;9598;50.954;3.112;2022-11-15T18:38:00;7.65;;;6.95;;
18931;SDS011;9598;50.954;3.112;2022-11-15T18:43:03;8.23;;;7.50;;
18931;SDS011;9598;50.954;3.112;2022-11-15T18:48:05;7.95;;;7.18;;
18931;SDS011;9598;50.954;3.112;2022-11-15T18:53:07;7.85;;;6.78;;
18931;SDS011;9598;50.954;3.112;2022-11-15T18:58:11;8.73;;;7.82;;
18931;SDS011;9598;50.954;3.112;2022-11-15T19:03:13;7.78;;;7.00;;
18931;SDS011;9598;50.954;3.112;2022-11-15T19:08:15;7.78;;;7.07;;
18931;SDS011;9598;50.954;3.112;2022-11-15T19:13:18;9.32;;;8.43;;
18931;SDS011;9598;50.954;3.112;2022-11-15T19:18:20;9.20;;;8.43;;
18931;SDS011;9598;50.954;3.112;2022-11-15T19:23:23;9.68;;;8.77;;
18931;SDS011;9598;50.954;3.112;2022-11-15T19:28:27;8.38;;;7.50;;
18931;SDS011;9598;50.954;3.112;2022-11-15T19:33:31;8.35;;;7.57;;
18931;SDS011;9598;50.954;3.112;2022-11-15T19:38:36;7.07;;;6.38;;
18931;SDS011;9598;50.954;3.112;2022-11-15T19:43:42;7.38;;;6.68;;
18931;SDS011;9598;50.954;3.112;2022-11-15T19:48:47;9.02;;;8.15;;
18931;SDS011;9598;50.954;3.112;2022-11-15T19:53:51;9.20;;;8.30;;
18931;SDS011;9598;50.954;3.112;2022-11-15T19:58:56;11.82;;;10.63;;
18931;SDS011;9598;50.954;3.112;2022-11-15T20:03:58;10.07;;;9.05;;
18931;SDS011;9598;50.954;3.112;2022-11-15T20:09:01;8.90;;;8.02;;
18931;SDS011;9598;50.954;3.112;2022-11-15T20:14:05;8.93;;;8.00;;
18931;SDS011;9598;50.954;3.112;2022-11-15T20:19:10;43.83;;;39.90;;
18931;SDS011;9598;50.954;3.112;2022-11-15T20:24:15;12.10;;;10.90;;
18931;SDS011;9598;50.954;3.112;2022-11-15T20:29:18;8.40;;;7.60;;
18931;SDS011;9598;50.954;3.112;2022-11-15T20:34:20;8.00;;;7.13;;
18931;SDS011;9598;50.954;3.112;2022-11-15T20:39:22;9.70;;;8.68;;
18931;SDS011;9598;50.954;3.112;2022-11-15T20:44:26;8.15;;;7.43;;
18931;SDS011;9598;50.954;3.112;2022-11-15T20:49:28;9.93;;;8.55;;
18931;SDS011;9598;50.954;3.112;2022-11-15T20:54:30;12.50;;;11.10;;
18931;SDS011;9598;50.954;3.112;2022-11-15T20:59:33;11.82;;;9.85;;
18931;SDS011;9598;50.954;3.112;2022-11-15T21:04:35;9.13;;;8.32;;
18931;SDS011;9598;50.954;3.112;2022-11-15T21:09:37;10.10;;;8.93;;
18931;SDS011;9598;50.954;3.112;2022-11-15T21:14:58;12.43;;;9.82;;
18931;SDS011;9598;50.954;3.112;2022-11-15T21:20:00;9.57;;;8.68;;
18931;SDS011;9598;50.954;3.112;2022-11-15T21:25:03;11.25;;;10.25;;
18931;SDS011;9598;50.954;3.112;2022-11-15T21:30:07;9.43;;;8.55;;
18931;SDS011;9598;50.954;3.112;2022-11-15T21:35:10;8.50;;;7.63;;
18931;SDS011;9598;50.954;3.112;2022-11-15T21:40:13;6.65;;;6.03;;
18931;SDS011;9598;50.954;3.112;2022-11-15T21:45:17;6.18;;;5.63;;
18931;SDS011;9598;50.954;3.112;2022-11-15T21:50:19;5.65;;;3.70;;
18931;SDS011;9598;50.954;3.112;2022-11-15T21:55:21;3.67;;;3.38;;
18931;SDS011;9598;50.954;3.112;2022-11-15T22:00:24;3.15;;;2.78;;
18931;SDS011;9598;50.954;3.112;2022-11-15T22:05:44;3.08;;;2.88;;
18931;SDS011;9598;50.954;3.112;2022-11-15T22:10:46;3.85;;;2.50;;
18931;SDS011;9598;50.954;3.112;2022-11-15T22:15:50;4.50;;;3.25;;
18931;SDS011;9598;50.954;3.112;2022-11-15T22:20:53;4.18;;;3.15;;
18931;SDS011;9598;50.954;3.112;2022-11-15T22:25:56;6.28;;;3.58;;
18931;SDS011;9598;50.954;3.112;2022-11-15T22:30:59;3.50;;;3.05;;
18931;SDS011;9598;50.954;3.112;2022-11-15T22:36:02;4.90;;;4.03;;
18931;SDS011;9598;50.954;3.112;2022-11-15T22:41:05;3.83;;;3.17;;
18931;SDS011;9598;50.954;3.112;2022-11-15T22:46:09;3.58;;;3.25;;
18931;SDS011;9598;50.954;3.112;2022-11-15T22:51:11;5.60;;;3.60;;
18931;SDS011;9598;50.954;3.112;2022-11-15T22:56:13;5.20;;;3.97;;
18931;SDS011;9598;50.954;3.112;2022-11-15T23:01:18;5.07;;;4.45;;
18931;SDS011;9598;50.954;3.112;2022-11-15T23:06:22;5.35;;;4.22;;
18931;SDS011;9598;50.954;3.112;2022-11-15T23:11:24;5.97;;;5.43;;
18931;SDS011;9598;50.954;3.112;2022-11-15T23:16:45;6.25;;;5.75;;
18931;SDS011;9598;50.954;3.112;2022-11-15T23:21:47;7.03;;;6.32;;
18931;SDS011;9598;50.954;3.112;2022-11-15T23:27:06;8.30;;;7.07;;
18931;SDS011;9598;50.954;3.112;2022-11-15T23:32:10;8.02;;;6.65;;
18931;SDS011;9598;50.954;3.112;2022-11-15T23:37:41;7.22;;;6.57;;
18931;SDS011;9598;50.954;3.112;2022-11-15T23:42:43;7.32;;;6.40;;
18931;SDS011;9598;50.954;3.112;2022-11-15T23:47:46;6.15;;;5.25;;
18931;SDS011;9598;50.954;3.112;2022-11-15T23:52:48;6.13;;;5.28;;
18931;SDS011;9598;50.954;3.112;2022-11-15T23:57:50;6.38;;;4.80;;
